Time;durP1;ratioP1;P1;durP2;ratioP2;P2;SDS_P1;SDS_P2;PMS_P1;PMS_P2;Temp;Humidity;BMP_temperature;BMP_pressure;BME280_temperature;BME280_humidity;BME280_pressure;Samples;Min_cycle;Max_cycle;Signal;HPM_P1;HPM_P2
2021/06/24 00:00:15;;;;;;;23.27;17.55;;;;;;;;;;5034203;28;20038;-84
2021/06/24 00:02:42;;;;;;;18.42;14.05;;;;;;;;;;5019683;28;20043;-88
2021/06/24 00:05:08;;;;;;;17.42;12.15;;;;;;;;;;5014697;28;20033;-87
2021/06/24 00:07:34;;;;;;;16.52;11.65;;;;;;;;;;5007891;28;20054;-88
2021/06/24 00:10:00;;;;;;;19.15;12.15;;;;;;;;;;5005548;28;20110;-88
2021/06/24 00:12:26;;;;;;;20.60;13.18;;;;;;;;;;5019599;28;20491;-84
2021/06/24 00:14:53;;;;;;;14.95;11.43;;;;;;;;;;5023238;28;20033;-85
2021/06/24 00:17:19;;;;;;;19.38;11.75;;;;;;;;;;5009689;28;20033;-88
2021/06/24 00:19:45;;;;;;;19.58;11.60;;;;;;;;;;5032866;28;20053;-88
2021/06/24 00:22:11;;;;;;;17.73;11.55;;;;;;;;;;4972245;28;20034;-90
2021/06/24 00:24:37;;;;;;;15.45;10.50;;;;;;;;;;4987432;28;20052;-85
2021/06/24 00:27:03;;;;;;;16.90;11.40;;;;;;;;;;4993806;28;20073;-87
2021/06/24 00:29:29;;;;;;;21.02;13.80;;;;;;;;;;4990123;28;20038;-91
2021/06/24 00:31:55;;;;;;;25.02;14.20;;;;;;;;;;4987537;28;20041;-88
2021/06/24 00:34:21;;;;;;;22.67;15.05;;;;;;;;;;4975153;28;20082;-85
2021/06/24 00:36:47;;;;;;;21.90;16.65;;;;;;;;;;4978035;28;20449;-87
2021/06/24 00:39:13;;;;;;;24.42;14.48;;;;;;;;;;4990015;28;20528;-87
2021/06/24 00:41:40;;;;;;;21.35;14.23;;;;;;;;;;4976849;28;20045;-86
2021/06/24 00:44:06;;;;;;;19.70;13.63;;;;;;;;;;4978614;28;20538;-88
2021/06/24 00:46:32;;;;;;;18.20;13.10;;;;;;;;;;4987723;28;20054;-87
2021/06/24 00:49:03;;;;;;;21.42;11.60;;;;;;;;;;4982097;28;20050;-88
2021/06/24 00:51:29;;;;;;;17.60;11.55;;;;;;;;;;4982388;28;20035;-84
2021/06/24 00:53:55;;;;;;;16.92;10.60;;;;;;;;;;4976639;28;20044;-86
2021/06/24 00:56:26;;;;;;;17.50;12.45;;;;;;;;;;4976472;28;20031;-88
2021/06/24 00:58:54;;;;;;;22.95;13.07;;;;;;;;;;4988426;28;20037;-87
2021/06/24 01:01:20;;;;;;;;;;;;;;;;;;4998978;28;20121;-85
2021/06/24 01:03:46;;;;;;;20.70;12.48;;;;;;;;;;5006394;28;19949;-86
2021/06/24 01:06:12;;;;;;;19.52;12.07;;;;;;;;;;4992176;28;20057;-86
2021/06/24 01:08:38;;;;;;;24.67;14.30;;;;;;;;;;5000174;28;20049;-86
2021/06/24 01:11:04;;;;;;;21.33;12.00;;;;;;;;;;4976888;28;20038;-83
2021/06/24 01:13:30;;;;;;;14.23;9.05;;;;;;;;;;4986858;28;20121;-86
2021/06/24 01:15:56;;;;;;;14.85;8.38;;;;;;;;;;4996710;28;20451;-89
2021/06/24 01:18:22;;;;;;;13.80;9.10;;;;;;;;;;4992363;28;20042;-82
2021/06/24 01:20:49;;;;;;;20.38;13.02;;;;;;;;;;4981095;28;20034;-82
2021/06/24 01:23:15;;;;;;;21.15;13.95;;;;;;;;;;5001776;28;20057;-82
2021/06/24 01:25:41;;;;;;;26.35;19.13;;;;;;;;;;4990139;28;20038;-82
2021/06/24 01:28:08;;;;;;;17.65;11.48;;;;;;;;;;4980157;28;20496;-82
2021/06/24 01:30:38;;;;;;;16.88;10.85;;;;;;;;;;4967175;28;20089;-82
2021/06/24 01:33:05;;;;;;;15.13;10.38;;;;;;;;;;4990274;28;20045;-82
2021/06/24 01:35:31;;;;;;;18.77;10.57;;;;;;;;;;4998525;28;20504;-82
2021/06/24 01:37:58;;;;;;;17.88;10.55;;;;;;;;;;4976360;28;20041;-82
2021/06/24 01:40:24;;;;;;;18.65;11.85;;;;;;;;;;4997766;28;20065;-82
2021/06/24 01:42:51;;;;;;;15.10;9.82;;;;;;;;;;4957095;28;20484;-82
2021/06/24 01:45:17;;;;;;;17.15;10.63;;;;;;;;;;4958143;28;20035;-82
2021/06/24 01:47:43;;;;;;;17.02;10.45;;;;;;;;;;4994873;28;20137;-81
2021/06/24 01:50:10;;;;;;;20.15;10.88;;;;;;;;;;4969566;28;20177;-82
2021/06/24 01:52:36;;;;;;;18.92;11.88;;;;;;;;;;4976931;28;20088;-82
2021/06/24 01:55:02;;;;;;;19.92;12.50;;;;;;;;;;4981802;28;20071;-82
2021/06/24 01:57:28;;;;;;;24.70;15.77;;;;;;;;;;4984548;28;20401;-82
2021/06/24 01:59:54;;;;;;;24.75;14.20;;;;;;;;;;4983403;28;20034;-82
2021/06/24 02:02:20;;;;;;;21.27;14.43;;;;;;;;;;4985048;28;20080;-82
2021/06/24 02:04:47;;;;;;;24.30;15.43;;;;;;;;;;4973074;28;20497;-83
2021/06/24 02:07:12;;;;;;;27.30;16.00;;;;;;;;;;4973357;28;20412;-82
2021/06/24 02:09:38;;;;;;;27.05;16.38;;;;;;;;;;4970790;28;20046;-83
2021/06/24 02:12:05;;;;;;;22.27;14.63;;;;;;;;;;4979592;28;20038;-83
2021/06/24 02:14:33;;;;;;;23.60;14.38;;;;;;;;;;4974958;28;20038;-83
2021/06/24 02:17:01;;;;;;;23.30;15.23;;;;;;;;;;4983499;28;20125;-82
2021/06/24 02:19:27;;;;;;;21.13;14.02;;;;;;;;;;4986208;28;20125;-83
2021/06/24 02:21:53;;;;;;;31.05;18.15;;;;;;;;;;4982320;28;20473;-83
2021/06/24 02:24:19;;;;;;;28.08;19.08;;;;;;;;;;4975154;28;20038;-82
2021/06/24 02:26:47;;;;;;;29.20;18.02;;;;;;;;;;4974048;28;20113;-81
2021/06/24 02:29:17;;;;;;;29.52;17.83;;;;;;;;;;4966170;28;20575;-83
2021/06/24 02:31:43;;;;;;;30.50;17.20;;;;;;;;;;4995850;28;20037;-83
2021/06/24 02:34:10;;;;;;;26.17;16.17;;;;;;;;;;5003716;28;20424;-83
2021/06/24 02:36:36;;;;;;;24.55;15.52;;;;;;;;;;4980518;28;20096;-81
2021/06/24 02:39:04;;;;;;;22.55;14.63;;;;;;;;;;4983870;28;20045;-82
2021/06/24 02:41:35;;;;;;;20.75;14.27;;;;;;;;;;4998565;28;20050;-83
2021/06/24 02:44:01;;;;;;;23.45;14.30;;;;;;;;;;4964207;28;20122;-82
2021/06/24 02:46:27;;;;;;;21.55;14.80;;;;;;;;;;4979548;28;20042;-82
2021/06/24 02:48:53;;;;;;;22.98;14.10;;;;;;;;;;4981831;28;20206;-81
2021/06/24 02:51:19;;;;;;;22.60;14.82;;;;;;;;;;4978606;28;20034;-84
2021/06/24 02:53:46;;;;;;;39.20;24.73;;;;;;;;;;4969848;28;20578;-83
2021/06/24 02:56:12;;;;;;;105.60;86.82;;;;;;;;;;4987865;28;20096;-81
2021/06/24 02:58:39;;;;;;;121.03;96.65;;;;;;;;;;4971425;28;20042;-83
2021/06/24 03:01:05;;;;;;;167.68;138.25;;;;;;;;;;4977280;28;20066;-83
2021/06/24 03:03:31;;;;;;;181.65;146.52;;;;;;;;;;4979996;28;20070;-82
2021/06/24 03:05:57;;;;;;;178.00;143.13;;;;;;;;;;4976840;28;20473;-83
2021/06/24 03:08:23;;;;;;;163.82;133.30;;;;;;;;;;4968807;28;20055;-83
2021/06/24 03:10:49;;;;;;;163.90;132.77;;;;;;;;;;4979431;28;20046;-83
2021/06/24 03:13:15;;;;;;;160.05;131.90;;;;;;;;;;4979697;28;20405;-83
2021/06/24 03:15:43;;;;;;;152.70;127.32;;;;;;;;;;4975522;28;20527;-82
2021/06/24 03:18:09;;;;;;;153.13;126.57;;;;;;;;;;4990051;28;20042;-82
2021/06/24 03:20:35;;;;;;;149.35;122.65;;;;;;;;;;4974551;28;20042;-83
2021/06/24 03:23:01;;;;;;;127.20;102.95;;;;;;;;;;4998504;28;20105;-82
2021/06/24 03:25:27;;;;;;;121.25;100.57;;;;;;;;;;4983435;28;20054;-81
2021/06/24 03:27:54;;;;;;;133.60;110.88;;;;;;;;;;4964717;28;20050;-84
2021/06/24 03:30:20;;;;;;;132.05;106.72;;;;;;;;;;4973355;28;20031;-83
2021/06/24 03:32:46;;;;;;;130.85;104.38;;;;;;;;;;4987231;28;20053;-83
2021/06/24 03:35:13;;;;;;;125.30;101.65;;;;;;;;;;4988832;28;20505;-83
2021/06/24 03:37:39;;;;;;;115.82;92.43;;;;;;;;;;4984776;28;20046;-82
2021/06/24 03:40:06;;;;;;;116.57;90.50;;;;;;;;;;5000005;28;20045;-83
2021/06/24 03:42:32;;;;;;;83.30;67.47;;;;;;;;;;4969700;28;20567;-83
2021/06/24 03:44:58;;;;;;;74.75;60.33;;;;;;;;;;4966924;28;20058;-83
2021/06/24 03:47:24;;;;;;;73.95;60.00;;;;;;;;;;4981247;28;20484;-83
2021/06/24 03:49:50;;;;;;;60.20;49.95;;;;;;;;;;4983969;28;20035;-82
2021/06/24 03:52:16;;;;;;;45.72;34.20;;;;;;;;;;4967509;28;20435;-82
2021/06/24 03:54:42;;;;;;;39.28;28.15;;;;;;;;;;4988313;28;20089;-83
2021/06/24 03:57:08;;;;;;;53.03;36.17;;;;;;;;;;4964963;28;20039;-82
2021/06/24 03:59:34;;;;;;;60.28;43.47;;;;;;;;;;4973660;28;20100;-83
2021/06/24 04:02:00;;;;;;;57.05;41.60;;;;;;;;;;4984568;28;20121;-83
2021/06/24 04:04:26;;;;;;;45.28;36.10;;;;;;;;;;4999838;28;20414;-82
2021/06/24 04:06:52;;;;;;;56.92;40.78;;;;;;;;;;4979001;28;20089;-82
2021/06/24 04:09:18;;;;;;;49.47;38.10;;;;;;;;;;4969533;28;20049;-82
2021/06/24 04:11:44;;;;;;;35.47;23.92;;;;;;;;;;4976925;28;20027;-83
2021/06/24 04:14:10;;;;;;;30.50;22.48;;;;;;;;;;4963994;28;20042;-82
2021/06/24 04:16:36;;;;;;;23.75;16.75;;;;;;;;;;4984002;28;20035;-82
2021/06/24 04:19:03;;;;;;;22.13;14.80;;;;;;;;;;4985862;28;20125;-83
2021/06/24 04:21:29;;;;;;;20.35;14.55;;;;;;;;;;4973801;28;20034;-83
2021/06/24 04:23:55;;;;;;;23.73;17.80;;;;;;;;;;4975278;28;20203;-82
2021/06/24 04:26:22;;;;;;;22.40;13.82;;;;;;;;;;4974737;28;20550;-83
2021/06/24 04:28:49;;;;;;;17.15;12.63;;;;;;;;;;4980730;28;20169;-83
2021/06/24 04:31:16;;;;;;;22.92;16.30;;;;;;;;;;4979730;28;20050;-82
2021/06/24 04:33:42;;;;;;;22.58;14.38;;;;;;;;;;4982546;28;20038;-82
2021/06/24 04:36:08;;;;;;;22.00;13.55;;;;;;;;;;4981115;28;20041;-82
2021/06/24 04:38:34;;;;;;;17.42;12.00;;;;;;;;;;4984517;28;20042;-81
2021/06/24 04:41:00;;;;;;;16.95;11.73;;;;;;;;;;4998644;28;20050;-82
2021/06/24 04:43:26;;;;;;;18.05;12.70;;;;;;;;;;4984587;28;20476;-82
2021/06/24 04:45:52;;;;;;;18.48;11.43;;;;;;;;;;4965055;28;20038;-82
2021/06/24 04:48:18;;;;;;;19.02;12.75;;;;;;;;;;4973721;28;20413;-83
2021/06/24 04:50:44;;;;;;;19.60;11.32;;;;;;;;;;4982941;28;20046;-82
2021/06/24 04:53:10;;;;;;;18.45;11.80;;;;;;;;;;4981543;28;20049;-83
2021/06/24 04:55:38;;;;;;;20.52;11.48;;;;;;;;;;4975485;28;20035;-82
2021/06/24 04:58:05;;;;;;;20.73;12.45;;;;;;;;;;4960273;28;20523;-82
2021/06/24 05:00:32;;;;;;;18.80;12.48;;;;;;;;;;4982743;28;20112;-82
2021/06/24 05:02:58;;;;;;;24.35;15.30;;;;;;;;;;4978681;28;20049;-83
2021/06/24 05:05:24;;;;;;;31.80;21.48;;;;;;;;;;4984294;28;20396;-82
2021/06/24 05:07:50;;;;;;;31.02;18.85;;;;;;;;;;4963728;28;20043;-82
2021/06/24 05:10:17;;;;;;;26.48;16.40;;;;;;;;;;4984600;28;20121;-82
2021/06/24 05:12:43;;;;;;;24.48;15.80;;;;;;;;;;4988832;28;20058;-80
2021/06/24 05:15:10;;;;;;;18.15;13.18;;;;;;;;;;4981980;28;20042;-83
2021/06/24 05:17:38;;;;;;;24.90;17.77;;;;;;;;;;4980668;28;20443;-82
2021/06/24 05:20:06;;;;;;;25.15;16.25;;;;;;;;;;4986104;28;20419;-81
2021/06/24 05:22:32;;;;;;;26.40;14.50;;;;;;;;;;4980177;28;20038;-81
2021/06/24 05:24:59;;;;;;;28.00;15.23;;;;;;;;;;4967838;28;20089;-82
2021/06/24 05:27:25;;;;;;;21.80;12.30;;;;;;;;;;4975750;28;20125;-82
2021/06/24 05:29:52;;;;;;;23.38;13.98;;;;;;;;;;5015982;28;20124;-82
2021/06/24 05:32:20;;;;;;;22.58;14.63;;;;;;;;;;5032683;28;20159;-81
2021/06/24 05:34:46;;;;;;;22.98;13.93;;;;;;;;;;5022122;28;20033;-82
2021/06/24 05:37:12;;;;;;;30.05;14.07;;;;;;;;;;5013723;28;20040;-83
2021/06/24 05:39:38;;;;;;;21.95;13.20;;;;;;;;;;5023944;28;20397;-83
2021/06/24 05:42:04;;;;;;;18.50;11.20;;;;;;;;;;5006320;28;20061;-82
2021/06/24 05:44:31;;;;;;;23.75;11.52;;;;;;;;;;4997686;28;20124;-84
2021/06/24 05:46:57;;;;;;;22.08;12.60;;;;;;;;;;5015064;28;20399;-84
2021/06/24 05:49:23;;;;;;;19.05;11.05;;;;;;;;;;5004535;28;20040;-83
2021/06/24 05:51:49;;;;;;;18.67;12.30;;;;;;;;;;5001874;28;20369;-83
2021/06/24 05:54:15;;;;;;;22.27;12.15;;;;;;;;;;5006433;28;20405;-84
2021/06/24 05:56:41;;;;;;;20.85;12.40;;;;;;;;;;5005535;28;20046;-83
2021/06/24 05:59:08;;;;;;;13.43;9.63;;;;;;;;;;5016738;28;20123;-83
2021/06/24 06:01:34;;;;;;;16.55;9.75;;;;;;;;;;5006067;28;20236;-83
2021/06/24 06:04:00;;;;;;;15.90;8.88;;;;;;;;;;5002877;28;20037;-84
2021/06/24 06:06:26;;;;;;;11.73;7.63;;;;;;;;;;4994285;28;20069;-83
2021/06/24 06:08:52;;;;;;;16.05;8.10;;;;;;;;;;5019783;28;20067;-83
2021/06/24 06:11:18;;;;;;;13.57;9.00;;;;;;;;;;5028595;28;20068;-83
2021/06/24 06:13:44;;;;;;;13.75;7.90;;;;;;;;;;5027880;28;20037;-84
2021/06/24 06:16:10;;;;;;;12.23;7.93;;;;;;;;;;5003275;28;20551;-83
2021/06/24 06:18:37;;;;;;;13.27;7.88;;;;;;;;;;5021533;28;20506;-83
2021/06/24 06:21:03;;;;;;;14.40;8.00;;;;;;;;;;5022324;28;20051;-84
2021/06/24 06:23:29;;;;;;;12.88;7.95;;;;;;;;;;5019784;28;20499;-83
2021/06/24 06:25:56;;;;;;;11.70;8.13;;;;;;;;;;5021170;28;20034;-84
2021/06/24 06:28:25;;;;;;;13.98;7.85;;;;;;;;;;5010901;28;20107;-83
2021/06/24 06:30:52;;;;;;;9.32;6.53;;;;;;;;;;5001135;28;20121;-84
2021/06/24 06:33:19;;;;;;;10.82;6.50;;;;;;;;;;5013767;28;20040;-83
2021/06/24 06:35:46;;;;;;;8.18;4.53;;;;;;;;;;5024500;28;20041;-84
2021/06/24 06:38:12;;;;;;;8.00;4.93;;;;;;;;;;5013819;28;20163;-84
2021/06/24 06:40:39;;;;;;;8.90;5.22;;;;;;;;;;5022756;28;20496;-84
2021/06/24 06:43:06;;;;;;;;;;;;;;;;;;5015489;28;20515;-84
2021/06/24 06:45:33;;;;;;;8.77;4.78;;;;;;;;;;5002155;28;19909;-84
2021/06/24 06:47:59;;;;;;;8.27;5.05;;;;;;;;;;5015539;28;20427;-84
2021/06/24 06:50:25;;;;;;;6.85;4.18;;;;;;;;;;5010013;28;20037;-84
2021/06/24 06:52:52;;;;;;;7.68;4.55;;;;;;;;;;5017779;28;20518;-83
2021/06/24 06:55:19;;;;;;;9.13;4.32;;;;;;;;;;5019679;28;20050;-83
2021/06/24 06:57:45;;;;;;;7.28;4.38;;;;;;;;;;5015935;28;20038;-83
2021/06/24 07:00:12;;;;;;;7.93;4.35;;;;;;;;;;5003794;28;20037;-83
2021/06/24 07:02:39;;;;;;;;;;;;;;;;;;5025287;28;20037;-84
2021/06/24 07:05:08;;;;;;;7.30;4.43;;;;;;;;;;5015309;28;19913;-83
2021/06/24 07:07:35;;;;;;;8.75;4.63;;;;;;;;;;5013536;28;20504;-83
2021/06/24 07:10:01;;;;;;;7.25;4.10;;;;;;;;;;5021291;28;20515;-82
2021/06/24 07:12:27;;;;;;;6.47;3.50;;;;;;;;;;5009013;28;20075;-83
2021/06/24 07:14:53;;;;;;;7.15;4.25;;;;;;;;;;5010256;28;20091;-84
2021/06/24 07:17:19;;;;;;;5.90;3.80;;;;;;;;;;5018348;28;20048;-83
2021/06/24 07:19:45;;;;;;;7.93;3.97;;;;;;;;;;5025994;28;20495;-83
2021/06/24 07:22:11;;;;;;;8.75;4.22;;;;;;;;;;5021519;28;20029;-82
2021/06/24 07:24:37;;;;;;;10.48;4.60;;;;;;;;;;5031137;28;20045;-82
2021/06/24 07:27:03;;;;;;;8.57;4.07;;;;;;;;;;5025769;28;20041;-83
2021/06/24 07:29:29;;;;;;;6.43;4.00;;;;;;;;;;4989577;28;20042;-82
2021/06/24 07:31:55;;;;;;;6.55;3.50;;;;;;;;;;4985876;28;20039;-83
2021/06/24 07:34:21;;;;;;;9.90;3.67;;;;;;;;;;4974637;28;20038;-83
2021/06/24 07:36:49;;;;;;;8.40;3.80;;;;;;;;;;4985684;28;20408;-82
2021/06/24 07:39:15;;;;;;;6.13;3.47;;;;;;;;;;4986023;28;20034;-83
2021/06/24 07:41:41;;;;;;;7.53;3.03;;;;;;;;;;4988093;28;20042;-82
2021/06/24 07:44:07;;;;;;;7.85;3.10;;;;;;;;;;4994489;28;20052;-82
2021/06/24 07:46:33;;;;;;;4.22;2.45;;;;;;;;;;4999604;28;20065;-82
2021/06/24 07:48:59;;;;;;;5.78;2.40;;;;;;;;;;4988428;28;20557;-83
2021/06/24 07:51:25;;;;;;;3.95;2.08;;;;;;;;;;4991438;28;20128;-82
2021/06/24 07:53:51;;;;;;;4.95;1.80;;;;;;;;;;4971867;28;20145;-83
2021/06/24 07:56:20;;;;;;;3.95;1.52;;;;;;;;;;4955783;28;20082;-81
2021/06/24 07:58:51;;;;;;;3.40;1.52;;;;;;;;;;4955123;28;20049;-83
2021/06/24 08:01:17;;;;;;;1.02;0.85;;;;;;;;;;5014840;28;20040;-83
2021/06/24 08:03:43;;;;;;;1.75;1.30;;;;;;;;;;4999622;28;20038;-83
2021/06/24 08:06:11;;;;;;;3.22;1.50;;;;;;;;;;5005253;28;20065;-84
2021/06/24 08:08:38;;;;;;;2.13;1.13;;;;;;;;;;5001357;28;20049;-83
2021/06/24 08:11:04;;;;;;;1.50;0.75;;;;;;;;;;5007011;28;20034;-83
2021/06/24 08:13:31;;;;;;;1.17;0.90;;;;;;;;;;4972514;28;20086;-82
2021/06/24 08:15:58;;;;;;;1.83;0.88;;;;;;;;;;4987787;28;20038;-84
2021/06/24 08:18:24;;;;;;;1.73;1.02;;;;;;;;;;4994913;28;20038;-83
2021/06/24 08:20:51;;;;;;;2.42;1.10;;;;;;;;;;4976788;28;20073;-84
2021/06/24 08:23:19;;;;;;;3.28;1.15;;;;;;;;;;5004327;28;20432;-84
2021/06/24 08:25:45;;;;;;;1.63;0.77;;;;;;;;;;5000914;28;20113;-83
2021/06/24 08:28:11;;;;;;;1.15;0.90;;;;;;;;;;5003467;28;20504;-84
2021/06/24 08:30:41;;;;;;;2.75;0.90;;;;;;;;;;5008862;28;20412;-84
2021/06/24 08:33:08;;;;;;;1.98;0.90;;;;;;;;;;5021970;28;20103;-81
2021/06/24 08:35:34;;;;;;;3.42;1.27;;;;;;;;;;5023638;28;20443;-84
2021/06/24 08:38:00;;;;;;;3.70;1.38;;;;;;;;;;5021806;28;20459;-83
2021/06/24 08:40:26;;;;;;;3.05;1.10;;;;;;;;;;5025086;28;20065;-83
2021/06/24 08:42:52;;;;;;;2.35;1.10;;;;;;;;;;5022538;28;20499;-85
2021/06/24 08:45:18;;;;;;;3.45;1.50;;;;;;;;;;5005968;28;20144;-84
2021/06/24 08:47:47;;;;;;;2.20;1.35;;;;;;;;;;5030874;28;20181;-84
2021/06/24 08:50:14;;;;;;;4.40;1.40;;;;;;;;;;5004140;28;20087;-83
2021/06/24 08:52:45;;;;;;;9.30;1.00;;;;;;;;;;5005340;28;20087;-82
2021/06/24 08:55:12;;;;;;;3.50;1.02;;;;;;;;;;5015210;28;20526;-82
2021/06/24 08:57:38;;;;;;;2.90;1.40;;;;;;;;;;4997335;28;20088;-83
2021/06/24 09:00:05;;;;;;;1.83;0.90;;;;;;;;;;4978612;28;20419;-83
2021/06/24 09:02:38;;;;;;;4.28;1.40;;;;;;;;;;4976946;28;20038;-83
2021/06/24 09:05:05;;;;;;;2.72;1.30;;;;;;;;;;5023833;28;20037;-84
2021/06/24 09:07:32;;;;;;;4.68;1.60;;;;;;;;;;4989049;28;20048;-84
2021/06/24 09:09:58;;;;;;;3.97;1.35;;;;;;;;;;5030267;28;20044;-82
2021/06/24 09:12:25;;;;;;;4.30;1.20;;;;;;;;;;5022826;28;20507;-84
2021/06/24 09:14:59;;;;;;;3.65;1.30;;;;;;;;;;5028388;28;20423;-84
2021/06/24 09:17:42;;;;;;;2.38;1.25;;;;;;;;;;5022338;28;20041;-83
2021/06/24 09:20:20;;;;;;;3.22;1.35;;;;;;;;;;5004628;28;20065;-83
2021/06/24 09:23:04;;;;;;;6.78;1.30;;;;;;;;;;5006605;28;20495;-83
2021/06/24 09:25:30;;;;;;;3.38;1.30;;;;;;;;;;5008751;28;20045;-84
2021/06/24 09:28:00;;;;;;;3.95;1.67;;;;;;;;;;5011103;28;20094;-83
2021/06/24 09:30:38;;;;;;;6.15;1.95;;;;;;;;;;4993570;28;20124;-83
2021/06/24 09:33:08;;;;;;;4.72;2.28;;;;;;;;;;5023624;28;20537;-82
2021/06/24 09:35:36;;;;;;;3.20;1.30;;;;;;;;;;5035913;28;20056;-82
2021/06/24 09:38:13;;;;;;;4.95;1.65;;;;;;;;;;5041862;28;20044;-83
2021/06/24 09:40:47;;;;;;;2.60;1.55;;;;;;;;;;5043819;28;20044;-83
2021/06/24 09:43:14;;;;;;;2.42;1.02;;;;;;;;;;4994200;28;20092;-83
2021/06/24 09:45:42;;;;;;;4.60;1.02;;;;;;;;;;5012172;28;20041;-85
2021/06/24 09:48:09;;;;;;;3.17;1.00;;;;;;;;;;5018000;28;20106;-84
2021/06/24 09:50:35;;;;;;;2.03;1.20;;;;;;;;;;5018918;28;20099;-83
2021/06/24 09:53:08;;;;;;;2.42;1.08;;;;;;;;;;4992043;28;20071;-82
2021/06/24 09:55:34;;;;;;;1.83;0.90;;;;;;;;;;5007235;28;20048;-82
2021/06/24 09:58:16;;;;;;;2.45;1.05;;;;;;;;;;5019469;28;20038;-83
2021/06/24 10:00:52;;;;;;;2.65;0.82;;;;;;;;;;5010648;28;20044;-83
2021/06/24 10:03:19;;;;;;;1.40;0.90;;;;;;;;;;4976231;28;20701;-83
2021/06/24 10:05:45;;;;;;;1.95;0.98;;;;;;;;;;4978022;28;20031;-83
2021/06/24 10:08:12;;;;;;;1.95;0.70;;;;;;;;;;5001470;28;20067;-87
2021/06/24 10:10:40;;;;;;;1.77;0.93;;;;;;;;;;4990091;28;20045;-83
2021/06/24 10:13:06;;;;;;;2.00;0.80;;;;;;;;;;4995245;28;20038;-84
2021/06/24 10:15:35;;;;;;;3.60;1.20;;;;;;;;;;5002389;28;20431;-83
2021/06/24 10:18:02;;;;;;;3.83;1.48;;;;;;;;;;5027271;28;20036;-86
2021/06/24 10:20:46;;;;;;;;;;;;;;;;;;;;;
2021/06/24 10:26:11;;;;;;;2.28;0.90;;;;;;;;;;4932552;28;20099;-85
2021/06/24 10:28:37;;;;;;;1.73;0.80;;;;;;;;;;4991856;28;20140;-87
2021/06/24 10:31:03;;;;;;;1.60;0.85;;;;;;;;;;4993768;28;20112;-86
2021/06/24 10:33:30;;;;;;;3.78;0.85;;;;;;;;;;4986001;28;20072;-85
2021/06/24 10:36:11;;;;;;;2.38;0.90;;;;;;;;;;5015902;28;20106;-85
2021/06/24 10:38:41;;;;;;;2.40;0.77;;;;;;;;;;5003462;28;20037;-83
2021/06/24 10:41:07;;;;;;;3.95;1.10;;;;;;;;;;5003298;28;20033;-84
2021/06/24 10:43:49;;;;;;;1.98;0.90;;;;;;;;;;5029360;28;20099;-85
2021/06/24 10:46:24;;;;;;;4.15;1.30;;;;;;;;;;5023708;28;20443;-85
2021/06/24 10:48:50;;;;;;;3.08;1.30;;;;;;;;;;5009841;28;20127;-87
2021/06/24 10:51:17;;;;;;;3.55;1.48;;;;;;;;;;5000644;28;20387;-86
2021/06/24 10:53:50;;;;;;;2.17;1.10;;;;;;;;;;5012195;28;20040;-86
2021/06/24 10:56:26;;;;;;;2.75;1.30;;;;;;;;;;4984108;28;20038;-87
2021/06/24 10:58:56;;;;;;;3.53;1.27;;;;;;;;;;5007243;28;20523;-87
2021/06/24 11:01:41;;;;;;;1.88;1.10;;;;;;;;;;4988814;28;20022;-87
2021/06/24 11:04:08;;;;;;;3.95;1.75;;;;;;;;;;5027870;28;20037;-87
2021/06/24 11:06:39;;;;;;;4.10;1.90;;;;;;;;;;5029647;28;20102;-87
2021/06/24 11:09:13;;;;;;;7.10;1.98;;;;;;;;;;4994005;28;20401;-86
2021/06/24 11:11:44;;;;;;;4.50;2.00;;;;;;;;;;4985877;28;20047;-86
2021/06/24 11:14:15;;;;;;;3.97;2.00;;;;;;;;;;4985772;28;20034;-85
2021/06/24 11:16:42;;;;;;;10.48;2.30;;;;;;;;;;5008619;28;20037;-84
2021/06/24 11:19:11;;;;;;;6.57;2.00;;;;;;;;;;4988940;28;20054;-84
2021/06/24 11:21:37;;;;;;;7.28;2.55;;;;;;;;;;5021036;28;20132;-81
2021/06/24 11:24:06;;;;;;;6.10;2.30;;;;;;;;;;5014787;28;20121;-86
2021/06/24 11:26:34;;;;;;;5.07;1.98;;;;;;;;;;5006477;28;20085;-86
2021/06/24 11:29:25;;;;;;;5.63;2.15;;;;;;;;;;5015293;28;20053;-86
2021/06/24 11:37:03;;;;;;;6.22;2.38;;;;;;;;;;4985606;28;20092;-82
2021/06/24 11:39:37;;;;;;;9.07;2.63;;;;;;;;;;4999357;28;20048;-83
2021/06/24 11:42:04;;;;;;;9.43;3.80;;;;;;;;;;4985517;28;20444;-84
2021/06/24 11:44:32;;;;;;;10.57;3.20;;;;;;;;;;5011801;28;20071;-85
2021/06/24 11:47:05;;;;;;;7.63;2.90;;;;;;;;;;5001561;28;20443;-86
2021/06/24 12:03:18;;;;;;;13.05;4.18;;;;;;;;;;5020876;28;20178;-86
2021/06/24 12:05:54;;;;;;;10.27;3.83;;;;;;;;;;4961874;28;20033;-85
2021/06/24 12:08:23;;;;;;;11.65;3.85;;;;;;;;;;4981514;28;20038;-85
2021/06/24 12:10:50;;;;;;;11.63;3.60;;;;;;;;;;5009135;28;20526;-84
2021/06/24 12:13:32;;;;;;;10.23;3.75;;;;;;;;;;5003964;28;20061;-84
2021/06/24 12:16:09;;;;;;;9.55;3.38;;;;;;;;;;4980571;28;20042;-83
2021/06/24 12:18:40;;;;;;;10.05;3.65;;;;;;;;;;5010303;28;20044;-84
2021/06/24 12:21:08;;;;;;;9.25;3.22;;;;;;;;;;5009846;28;20034;-83
2021/06/24 12:23:41;;;;;;;11.88;3.85;;;;;;;;;;4997335;28;20053;-83
2021/06/24 12:26:07;;;;;;;17.75;4.18;;;;;;;;;;4997784;28;20069;-85
2021/06/24 12:28:34;;;;;;;12.65;4.57;;;;;;;;;;4992967;28;20559;-84
2021/06/24 12:31:00;;;;;;;11.77;4.63;;;;;;;;;;4980123;28;22092;-85
2021/06/24 12:33:27;;;;;;;16.52;4.07;;;;;;;;;;4960518;28;20489;-84
2021/06/24 12:35:54;;;;;;;13.35;5.25;;;;;;;;;;5009504;28;20706;-85
2021/06/24 12:38:23;;;;;;;12.10;5.28;;;;;;;;;;5000414;28;20045;-87
2021/06/24 12:40:50;;;;;;;15.57;5.80;;;;;;;;;;5001412;28;20052;-84
2021/06/24 12:43:19;;;;;;;26.98;10.77;;;;;;;;;;4962249;28;20038;-88
2021/06/24 12:45:44;;;;;;;;;;;;;;;;;;5017146;28;20042;-88
2021/06/24 12:48:27;;;;;;;13.85;5.65;;;;;;;;;;5005734;28;19920;-84
2021/06/24 12:50:55;;;;;;;15.55;5.30;;;;;;;;;;5022087;28;20038;-82
2021/06/24 12:53:29;;;;;;;7.97;4.43;;;;;;;;;;4990178;28;20048;-83
2021/06/24 12:55:55;;;;;;;9.35;4.10;;;;;;;;;;4973521;28;20436;-84
2021/06/24 12:58:34;;;;;;;10.40;3.80;;;;;;;;;;4996347;28;20127;-81
2021/06/24 13:01:13;;;;;;;14.63;4.57;;;;;;;;;;4981894;28;20065;-83
2021/06/24 13:03:42;;;;;;;14.70;4.97;;;;;;;;;;5007769;28;20041;-85
2021/06/24 13:06:14;;;;;;;12.65;5.28;;;;;;;;;;5010037;28;20067;-84
2021/06/24 13:08:58;;;;;;;11.85;5.65;;;;;;;;;;5003066;28;20093;-82
2021/06/24 13:11:27;;;;;;;16.33;6.25;;;;;;;;;;4949481;28;20042;-84
2021/06/24 13:13:54;;;;;;;;;;;;;;;;;;4962106;28;20046;-84
2021/06/24 13:16:26;;;;;;;14.57;6.75;;;;;;;;;;4936036;28;19941;-84
2021/06/24 13:18:57;;;;;;;12.15;5.28;;;;;;;;;;4940084;28;20047;-83
2021/06/24 13:21:23;;;;;;;9.38;3.75;;;;;;;;;;4933814;28;20041;-87
2021/06/24 13:23:51;;;;;;;9.93;4.50;;;;;;;;;;4934704;28;20071;-83
2021/06/24 13:26:20;;;;;;;9.80;3.88;;;;;;;;;;4957190;28;20047;-83
2021/06/24 13:28:45;;;;;;;;;;;;;;;;;;4991618;28;20572;-84
2021/06/24 13:31:12;;;;;;;8.07;3.83;;;;;;;;;;5009305;28;19910;-83
2021/06/24 13:33:38;;;;;;;7.70;4.22;;;;;;;;;;4991776;28;20062;-83
2021/06/24 13:36:25;;;;;;;6.93;4.55;;;;;;;;;;4992276;28;20064;-83
2021/06/24 13:38:58;;;;;;;8.48;4.07;;;;;;;;;;4996098;28;20442;-82
2021/06/24 13:41:25;;;;;;;12.05;5.18;;;;;;;;;;4996553;28;20099;-82
2021/06/24 13:44:06;;;;;;;9.55;5.15;;;;;;;;;;4987314;28;20034;-86
2021/06/24 13:46:32;;;;;;;9.90;6.07;;;;;;;;;;4999286;28;20542;-83
2021/06/24 13:48:58;;;;;;;10.02;3.72;;;;;;;;;;4999756;28;20488;-81
2021/06/24 13:51:24;;;;;;;12.75;4.85;;;;;;;;;;5002833;28;20038;-85
2021/06/24 13:54:10;;;;;;;10.18;4.32;;;;;;;;;;4989852;28;20053;-83
2021/06/24 13:56:36;;;;;;;14.27;6.60;;;;;;;;;;4983756;28;20091;-82
2021/06/24 13:59:03;;;;;;;13.45;7.10;;;;;;;;;;5002268;28;20116;-83
2021/06/24 14:01:30;;;;;;;15.32;8.88;;;;;;;;;;4993700;28;20049;-84
2021/06/24 14:03:56;;;;;;;18.20;8.45;;;;;;;;;;4989828;28;20037;-82
2021/06/24 14:06:24;;;;;;;16.42;8.27;;;;;;;;;;4988851;28;20030;-84
2021/06/24 14:08:50;;;;;;;14.65;7.95;;;;;;;;;;4969183;28;20045;-80
2021/06/24 14:11:16;;;;;;;16.38;11.43;;;;;;;;;;5014499;28;20045;-84
2021/06/24 14:13:43;;;;;;;17.30;10.10;;;;;;;;;;4963296;28;20030;-82
2021/06/24 14:16:12;;;;;;;14.65;8.93;;;;;;;;;;4975586;28;20046;-82
2021/06/24 14:18:39;;;;;;;12.13;9.07;;;;;;;;;;4993577;28;20080;-82
2021/06/24 14:21:06;;;;;;;12.10;9.77;;;;;;;;;;4996988;28;20113;-85
2021/06/24 14:23:33;;;;;;;13.15;9.10;;;;;;;;;;4999448;28;20037;-83
2021/06/24 14:26:00;;;;;;;8.82;5.90;;;;;;;;;;4988115;28;20160;-84
2021/06/24 14:28:26;;;;;;;8.32;4.80;;;;;;;;;;5015553;28;20052;-83
2021/06/24 14:30:55;;;;;;;10.73;6.35;;;;;;;;;;4997092;28;20033;-79
2021/06/24 14:33:21;;;;;;;10.00;6.63;;;;;;;;;;5006277;28;20038;-83
2021/06/24 14:35:48;;;;;;;11.85;6.78;;;;;;;;;;4988096;28;20555;-84
2021/06/24 14:38:19;;;;;;;13.43;7.88;;;;;;;;;;4974909;28;20055;-80
2021/06/24 14:40:46;;;;;;;13.57;9.30;;;;;;;;;;4980703;28;20130;-83
2021/06/24 14:43:12;;;;;;;14.77;9.65;;;;;;;;;;4990612;28;20082;-82
2021/06/24 14:45:42;;;;;;;17.50;11.30;;;;;;;;;;5027997;28;20049;-80
2021/06/24 14:48:08;;;;;;;14.15;11.07;;;;;;;;;;4988226;28;20070;-84
2021/06/24 14:50:45;;;;;;;16.77;11.35;;;;;;;;;;5005779;28;20060;-83
2021/06/24 14:53:12;;;;;;;18.33;12.75;;;;;;;;;;5011629;28;20517;-85
2021/06/24 14:55:38;;;;;;;21.05;12.10;;;;;;;;;;4969452;28;20041;-86